Time;durP1;ratioP1;P1;durP2;ratioP2;P2;SDS_P1;SDS_P2;PMS_P1;PMS_P2;Temp;Humidity;BMP_temperature;BMP_pressure;BME280_temperature;BME280_humidity;BME280_pressure;Samples;Min_cycle;Max_cycle;Signal;HPM_P1;HPM_P2
2024/03/07 00:01:03;;;;;;;13.00;7.60;;;;;;;-2.36;100.00;100845.24;109405;1251;59268;-58
2024/03/07 00:03:31;;;;;;;13.40;7.00;;;;;;;-2.33;100.00;100842.16;109357;1251;59377;-54
2024/03/07 00:05:58;;;;;;;10.40;6.00;;;;;;;-2.32;100.00;100840.21;109375;1251;74760;-52
2024/03/07 00:08:26;;;;;;;14.50;6.70;;;;;;;-2.33;100.00;100838.56;109369;1256;66109;-55
2024/03/07 00:10:55;;;;;;;13.90;7.30;;;;;;;-2.32;100.00;100836.48;109468;1251;73101;-58
2024/03/07 00:13:23;;;;;;;14.90;7.60;;;;;;;-2.32;100.00;100833.91;109375;1251;59667;-54
2024/03/07 00:15:51;;;;;;;13.90;7.20;;;;;;;-2.29;100.00;100829.84;109457;1251;60070;-53
2024/03/07 00:18:18;;;;;;;11.90;6.20;;;;;;;-2.26;100.00;100829.18;109498;1251;73459;-53
2024/03/07 00:20:46;;;;;;;16.00;7.70;;;;;;;-2.25;100.00;100834.05;109490;1251;65831;-60
2024/03/07 00:23:16;;;;;;;13.20;6.90;;;;;;;-2.26;100.00;100834.26;109458;1251;73175;-55
2024/03/07 00:25:44;;;;;;;17.20;9.10;;;;;;;-2.26;100.00;100832.60;109412;1251;59308;-54
2024/03/07 00:28:11;;;;;;;18.10;9.10;;;;;;;-2.29;100.00;100828.48;109404;1251;60106;-54
2024/03/07 00:30:39;;;;;;;14.30;7.70;;;;;;;-2.28;100.00;100825.72;109432;1251;74756;-53
2024/03/07 00:33:08;;;;;;;14.00;8.20;;;;;;;-2.29;100.00;100828.98;109428;1251;67624;-55
2024/03/07 00:35:35;;;;;;;18.40;8.50;;;;;;;-2.30;100.00;100826.84;109406;1251;72731;-54
2024/03/07 00:38:03;;;;;;;12.10;6.50;;;;;;;-2.30;100.00;100826.15;109425;1251;59433;-57
2024/03/07 00:40:32;;;;;;;13.80;8.00;;;;;;;-2.29;100.00;100823.23;109497;1251;60999;-53
2024/03/07 00:43:00;;;;;;;13.30;6.60;;;;;;;-2.27;100.00;100823.95;109478;1251;73344;-59
2024/03/07 00:45:27;;;;;;;15.60;8.30;;;;;;;-2.27;100.00;100817.14;109486;1251;64688;-53
2024/03/07 00:47:55;;;;;;;16.70;7.80;;;;;;;-2.28;100.00;100819.91;109448;1251;73248;-53
2024/03/07 00:50:22;;;;;;;14.30;7.60;;;;;;;-2.27;100.00;100820.17;109413;1254;60182;-53
2024/03/07 00:52:50;;;;;;;17.50;7.50;;;;;;;-2.26;100.00;100818.95;109469;1251;60069;-53
2024/03/07 00:55:18;;;;;;;25.40;13.40;;;;;;;-2.24;100.00;100820.34;109416;1251;74731;-54
2024/03/07 00:57:46;;;;;;;12.20;6.50;;;;;;;-2.22;100.00;100817.38;109498;1252;65832;-54
2024/03/07 01:00:14;;;;;;;12.10;7.00;;;;;;;-2.22;100.00;100816.86;109483;1251;71339;-53
2024/03/07 01:02:43;;;;;;;15.80;7.10;;;;;;;-2.23;100.00;100817.58;109468;1252;59516;-53
2024/03/07 01:05:13;;;;;;;13.40;7.20;;;;;;;-2.23;100.00;100818.77;109434;1251;59262;-54
2024/03/07 01:07:42;;;;;;;13.60;7.00;;;;;;;-2.24;100.00;100816.95;109496;1252;72570;-53
2024/03/07 01:10:11;;;;;;;11.60;6.20;;;;;;;-2.24;100.00;100815.96;109512;1254;66992;-53
2024/03/07 01:12:38;;;;;;;12.20;6.70;;;;;;;-2.26;100.00;100819.46;109436;1253;72686;-52
2024/03/07 01:15:06;;;;;;;12.40;6.80;;;;;;;-2.29;100.00;100820.49;109478;1254;59556;-58
2024/03/07 01:17:34;;;;;;;12.50;6.40;;;;;;;-2.32;100.00;100821.19;109423;1252;58912;-54
2024/03/07 01:20:02;;;;;;;14.20;7.80;;;;;;;-2.34;100.00;100827.11;109464;1252;72889;-53
2024/03/07 01:22:30;;;;;;;13.60;7.40;;;;;;;-2.33;100.00;100831.30;109540;1251;65565;-53
2024/03/07 01:24:57;;;;;;;11.70;7.20;;;;;;;-2.31;100.00;100827.44;109526;1250;72714;-54
2024/03/07 01:27:25;;;;;;;12.40;6.90;;;;;;;-2.29;100.00;100833.23;109489;1250;59798;-54
2024/03/07 01:29:53;;;;;;;14.50;7.70;;;;;;;-2.30;100.00;100835.36;109506;1250;59531;-53
2024/03/07 01:32:21;;;;;;;12.70;7.00;;;;;;;-2.32;100.00;100836.98;109530;1251;75196;-53
2024/03/07 01:34:49;;;;;;;14.00;6.60;;;;;;;-2.34;100.00;100837.95;109527;1251;65921;-53
2024/03/07 01:37:16;;;;;;;10.30;6.20;;;;;;;-2.38;100.00;100841.75;109465;1251;72954;-59
2024/03/07 01:39:44;;;;;;;14.30;6.80;;;;;;;-2.42;100.00;100841.15;109481;1251;59398;-54
2024/03/07 01:42:12;;;;;;;13.30;7.80;;;;;;;-2.47;100.00;100844.27;109485;1251;59089;-53
2024/03/07 01:44:43;;;;;;;14.20;7.70;;;;;;;-2.51;100.00;100846.41;109519;1250;73365;-53
2024/03/07 01:47:11;;;;;;;12.60;7.10;;;;;;;-2.53;100.00;100849.07;109506;1251;65613;-54
2024/03/07 01:49:39;;;;;;;10.90;6.80;;;;;;;-2.53;100.00;100850.11;109447;1251;71524;-54
2024/03/07 01:52:07;;;;;;;12.10;6.90;;;;;;;-2.55;100.00;100848.14;109332;1251;214710;-53
2024/03/07 01:54:34;;;;;;;13.10;6.50;;;;;;;-2.54;100.00;100851.00;109528;1251;60042;-53
2024/03/07 01:57:03;;;;;;;15.50;7.90;;;;;;;-2.53;100.00;100850.59;109534;1250;74818;-53
2024/03/07 01:59:32;;;;;;;12.70;6.90;;;;;;;-2.53;100.00;100854.54;109436;1251;66992;-54
2024/03/07 02:02:02;;;;;;;11.10;5.80;;;;;;;-2.53;100.00;100856.56;109331;1251;72931;-53
2024/03/07 02:04:30;;;;;;;10.80;5.80;;;;;;;-2.53;100.00;100858.59;109526;1251;59031;-52
2024/03/07 02:06:58;;;;;;;12.60;6.30;;;;;;;-2.54;100.00;100856.94;109532;1251;59083;-53
2024/03/07 02:09:26;;;;;;;10.50;5.80;;;;;;;-2.56;100.00;100855.36;109485;1255;73430;-52
2024/03/07 02:11:54;;;;;;;13.20;6.70;;;;;;;-2.59;100.00;100858.41;109476;1251;67316;-52
2024/03/07 02:14:21;;;;;;;11.40;6.10;;;;;;;-2.58;100.00;100861.61;109485;1251;71444;-53
2024/03/07 02:16:49;;;;;;;10.90;6.80;;;;;;;-2.59;100.00;100857.89;109460;1251;59315;-54
2024/03/07 02:19:17;;;;;;;12.60;6.40;;;;;;;-2.60;100.00;100857.42;109492;1250;59449;-53
2024/03/07 02:21:45;;;;;;;9.50;5.60;;;;;;;-2.60;100.00;100861.89;109519;1251;74764;-53
2024/03/07 02:24:14;;;;;;;12.60;6.50;;;;;;;-2.60;100.00;100866.14;109454;1250;65660;-53
2024/03/07 02:26:42;;;;;;;12.20;7.00;;;;;;;-2.60;100.00;100856.92;109440;1254;72741;-53
2024/03/07 02:29:10;;;;;;;13.30;6.40;;;;;;;-2.62;100.00;100864.17;109420;1251;59195;-55
2024/03/07 02:31:41;;;;;;;11.10;6.00;;;;;;;-2.61;100.00;100865.52;109488;1251;60116;-53
2024/03/07 02:34:09;;;;;;;12.70;6.50;;;;;;;-2.61;100.00;100868.05;109463;1251;74406;-53
2024/03/07 02:36:36;;;;;;;18.70;7.90;;;;;;;-2.61;100.00;100866.04;109516;1251;67214;-53
2024/03/07 02:39:06;;;;;;;13.10;7.30;;;;;;;-2.61;100.00;100865.52;109458;1252;72649;-59
2024/03/07 02:41:34;;;;;;;10.80;6.10;;;;;;;-2.59;100.00;100870.35;109460;1251;58994;-54
2024/03/07 02:44:03;;;;;;;15.10;7.60;;;;;;;-2.57;100.00;100867.63;109479;1251;58922;-54
2024/03/07 02:46:32;;;;;;;13.90;7.80;;;;;;;-2.54;100.00;100867.13;109550;1251;74665;-53
2024/03/07 02:49:00;;;;;;;12.50;7.20;;;;;;;-2.53;100.00;100864.35;109470;1251;66808;-58
2024/03/07 02:51:28;;;;;;;11.90;6.70;;;;;;;-2.51;100.00;100863.95;109475;1251;73225;-53
2024/03/07 02:53:55;;;;;;;14.70;7.20;;;;;;;-2.49;100.00;100866.04;109501;1251;59464;-53
2024/03/07 02:56:24;;;;;;;11.40;6.40;;;;;;;-2.48;100.00;100866.67;109518;1251;60035;-54
2024/03/07 02:58:52;;;;;;;14.20;7.20;;;;;;;-2.47;100.00;100867.64;109488;1251;73395;-57
2024/03/07 03:01:20;;;;;;;12.00;6.10;;;;;;;-2.47;100.00;100869.11;109480;1251;64644;-55
2024/03/07 03:03:48;;;;;;;15.60;7.40;;;;;;;-2.47;100.00;100870.34;109493;1251;71395;-54
2024/03/07 03:06:15;;;;;;;13.00;7.50;;;;;;;-2.49;100.00;100876.21;109469;1251;59365;-55
2024/03/07 03:08:43;;;;;;;12.60;7.20;;;;;;;-2.50;100.00;100877.15;109432;1250;58889;-54
2024/03/07 03:11:13;;;;;;;15.50;7.20;;;;;;;-2.52;100.00;100877.75;109392;1255;73696;-58
2024/03/07 03:13:42;;;;;;;12.60;7.20;;;;;;;-2.52;100.00;100876.55;109448;1251;66103;-54
2024/03/07 03:16:10;;;;;;;12.20;6.80;;;;;;;-2.52;100.00;100881.02;109445;1251;72709;-53
2024/03/07 03:18:38;;;;;;;13.90;7.60;;;;;;;-2.54;100.00;100876.17;109481;1251;59353;-54
2024/03/07 03:21:06;;;;;;;16.90;7.90;;;;;;;-2.54;100.00;100875.34;109503;1251;59067;-60
2024/03/07 03:23:34;;;;;;;13.40;7.30;;;;;;;-2.53;100.00;100884.30;109485;1251;75168;-55
2024/03/07 03:26:02;;;;;;;11.70;6.80;;;;;;;-2.53;100.00;100884.13;109449;1250;66124;-53
2024/03/07 03:28:30;;;;;;;15.70;7.90;;;;;;;-2.54;100.00;100885.35;109489;1251;72728;-54
2024/03/07 03:30:57;;;;;;;15.80;8.30;;;;;;;-2.55;100.00;100889.47;109499;1251;59439;-54
2024/03/07 03:33:25;;;;;;;12.40;7.00;;;;;;;-2.55;100.00;100889.98;109413;1251;60072;-54
2024/03/07 03:35:55;;;;;;;14.90;7.70;;;;;;;-2.56;100.00;100889.20;109430;1251;73344;-54
2024/03/07 03:38:23;;;;;;;14.30;8.50;;;;;;;-2.59;100.00;100887.36;109475;1250;65691;-54
2024/03/07 03:40:51;;;;;;;12.60;7.70;;;;;;;-2.61;100.00;100890.88;109469;1251;72724;-54
2024/03/07 03:43:18;;;;;;;14.40;8.20;;;;;;;-2.62;100.00;100891.92;109417;1251;58994;-57
2024/03/07 03:45:47;;;;;;;12.30;7.20;;;;;;;-2.63;100.00;100893.53;109536;1251;60042;-54
2024/03/07 03:48:17;;;;;;;14.60;8.10;;;;;;;-2.65;100.00;100893.80;109554;1251;74649;-55
2024/03/07 03:50:46;;;;;;;14.70;8.00;;;;;;;-2.65;100.00;100897.36;109570;1251;65645;-54
2024/03/07 03:53:14;;;;;;;13.00;6.90;;;;;;;-2.66;100.00;100896.39;109436;1251;73198;-54
2024/03/07 03:55:42;;;;;;;13.50;7.40;;;;;;;-2.67;100.00;100900.69;109544;1251;58910;-55
2024/03/07 03:58:10;;;;;;;12.50;7.10;;;;;;;-2.68;100.00;100902.98;109535;1251;59011;-53
2024/03/07 04:00:39;;;;;;;15.60;8.00;;;;;;;-2.71;100.00;100902.92;109585;1252;74751;-53
2024/03/07 04:03:06;;;;;;;15.50;8.50;;;;;;;-2.72;100.00;100905.20;109490;1251;67233;-55
2024/03/07 04:05:34;;;;;;;13.90;7.90;;;;;;;-2.72;100.00;100905.92;109580;1251;71384;-54
2024/03/07 04:08:04;;;;;;;14.80;8.20;;;;;;;-2.72;100.00;100910.30;109523;1256;60961;-54
2024/03/07 04:10:31;;;;;;;14.90;8.20;;;;;;;-2.73;100.00;100909.67;109456;1251;59142;-53
2024/03/07 04:12:59;;;;;;;14.40;7.60;;;;;;;-2.74;100.00;100908.88;109450;1251;73506;-54
2024/03/07 04:15:30;;;;;;;13.60;8.00;;;;;;;-2.76;100.00;100910.51;109494;1253;67585;-54
2024/03/07 04:18:02;;;;;;;15.10;8.80;;;;;;;-2.78;100.00;100911.14;109455;1253;72198;-52
2024/03/07 04:20:30;;;;;;;16.90;8.00;;;;;;;-2.79;100.00;100915.27;109457;1252;58957;-53
2024/03/07 04:22:58;;;;;;;14.80;7.80;;;;;;;-2.81;100.00;100916.40;109455;1251;58893;-54
2024/03/07 04:25:25;;;;;;;13.30;7.90;;;;;;;-2.83;100.00;100915.34;109413;1255;74684;-55
2024/03/07 04:27:53;;;;;;;16.10;8.80;;;;;;;-2.83;100.00;100915.52;109556;1250;66799;-54
2024/03/07 04:30:20;;;;;;;13.20;7.50;;;;;;;-2.82;100.00;100912.91;109504;1251;72721;-54
2024/03/07 04:32:48;;;;;;;13.10;7.90;;;;;;;-2.82;100.00;100917.96;109479;1250;59001;-53
2024/03/07 04:35:16;;;;;;;16.20;8.90;;;;;;;-2.82;100.00;100919.91;109491;1251;59435;-53
2024/03/07 04:37:46;;;;;;;15.00;8.60;;;;;;;-2.84;100.00;100920.63;109585;1251;74645;-54
2024/03/07 04:40:17;;;;;;;13.00;8.00;;;;;;;-2.87;100.00;100917.23;109515;1251;67069;-53
2024/03/07 04:42:49;;;;;;;14.00;8.40;;;;;;;-2.90;100.00;100922.84;109516;1252;72937;-53
2024/03/07 04:45:17;;;;;;;;;;;;;;;-2.94;100.00;100922.20;109416;1252;58996;-58
2024/03/07 04:47:46;;;;;;;15.20;8.50;;;;;;;-2.96;100.00;100920.10;109476;1256;59797;-53
2024/03/07 04:50:17;;;;;;;15.50;8.00;;;;;;;-3.00;100.00;100923.52;109489;1250;73371;-53
2024/03/07 04:52:46;;;;;;;16.00;8.60;;;;;;;-3.05;100.00;100925.48;109586;1250;67052;-53
2024/03/07 04:55:16;;;;;;;14.20;9.10;;;;;;;-3.07;100.00;100928.35;109441;1254;71399;-58
2024/03/07 04:57:44;;;;;;;17.60;8.70;;;;;;;-3.07;100.00;100931.56;109504;1251;59289;-53
2024/03/07 05:00:15;;;;;;;14.80;8.40;;;;;;;-3.06;100.00;100933.86;109469;1251;58927;-54
2024/03/07 05:02:47;;;;;;;18.40;10.00;;;;;;;-3.03;100.00;100932.02;109499;1251;75767;-53
2024/03/07 05:05:21;;;;;;;14.90;8.30;;;;;;;-2.98;100.00;100936.20;109445;1251;65632;-55
2024/03/07 05:07:51;;;;;;;14.00;8.20;;;;;;;-2.96;100.00;100941.85;109535;1251;73360;-53
2024/03/07 05:10:20;;;;;;;14.90;8.80;;;;;;;-2.96;100.00;100937.10;109466;1255;58967;-54
2024/03/07 05:12:47;;;;;;;17.00;9.20;;;;;;;-2.95;100.00;100942.34;109480;1251;59465;-53
2024/03/07 05:15:15;;;;;;;13.40;8.20;;;;;;;-2.94;100.00;100943.61;109447;1253;73415;-54
2024/03/07 05:17:43;;;;;;;17.20;10.00;;;;;;;-2.96;100.00;100944.38;109431;1256;66916;-53
2024/03/07 05:20:12;;;;;;;14.00;8.00;;;;;;;-2.93;100.00;100944.27;109449;1251;71793;-53
2024/03/07 05:22:44;;;;;;;15.20;8.80;;;;;;;-2.94;100.00;100945.85;109446;1253;59340;-59
2024/03/07 05:25:12;;;;;;;15.90;8.50;;;;;;;-2.97;100.00;100945.64;109446;1254;59299;-53
2024/03/07 05:27:40;;;;;;;15.10;8.50;;;;;;;-2.96;100.00;100947.83;109471;1251;74771;-53
2024/03/07 05:30:11;;;;;;;12.50;7.40;;;;;;;-2.95;100.00;100947.59;109520;1251;65619;-53
2024/03/07 05:32:39;;;;;;;12.60;7.30;;;;;;;-2.98;100.00;100950.63;109462;1251;72794;-54
2024/03/07 05:35:08;;;;;;;10.80;6.40;;;;;;;-2.98;100.00;100953.88;109424;1250;59300;-54
2024/03/07 05:37:35;;;;;;;12.20;6.80;;;;;;;-2.97;100.00;100954.63;109496;1251;58865;-53
2024/03/07 05:40:03;;;;;;;16.30;8.50;;;;;;;-2.94;100.00;100958.44;109497;1250;73805;-53
2024/03/07 05:42:31;;;;;;;16.40;8.10;;;;;;;-2.93;100.00;100960.58;109426;1253;66794;-54
2024/03/07 05:44:59;;;;;;;13.90;7.00;;;;;;;-2.95;100.00;100958.98;109428;1252;72868;-53
2024/03/07 05:47:27;;;;;;;13.10;7.90;;;;;;;-2.94;100.00;100957.73;109450;1251;59345;-53
2024/03/07 05:49:55;;;;;;;14.00;7.90;;;;;;;-2.90;100.00;100961.59;109444;1251;58955;-53
2024/03/07 05:52:23;;;;;;;13.90;8.20;;;;;;;-2.84;100.00;100960.77;109476;1251;73422;-53
2024/03/07 05:54:50;;;;;;;14.20;8.00;;;;;;;-2.75;100.00;100955.73;109377;1251;65931;-57
2024/03/07 05:57:18;;;;;;;12.90;7.90;;;;;;;-2.64;100.00;100953.65;109451;1254;72668;-53
2024/03/07 05:59:46;;;;;;;14.00;8.10;;;;;;;-2.57;100.00;100949.66;109435;1254;59331;-54
2024/03/07 06:02:15;;;;;;;12.00;7.60;;;;;;;-2.53;100.00;100948.94;109419;1254;60064;-53
2024/03/07 06:04:43;;;;;;;19.50;10.20;;;;;;;-2.49;100.00;100951.14;109439;1255;74925;-59
2024/03/07 06:07:12;;;;;;;16.20;9.30;;;;;;;-2.45;100.00;100952.92;109529;1251;65615;-53
2024/03/07 06:09:39;;;;;;;15.70;8.30;;;;;;;-2.38;100.00;100952.58;109572;1251;72744;-53
2024/03/07 06:12:08;;;;;;;14.50;7.70;;;;;;;-2.34;100.00;100956.45;109425;1254;60465;-56
2024/03/07 06:14:49;;;;;;;13.90;7.60;;;;;;;-2.35;100.00;100956.83;109386;1254;59385;-53
2024/03/07 06:17:21;;;;;;;13.60;7.30;;;;;;;-2.36;100.00;100959.11;109467;1251;73446;-53
2024/03/07 06:19:49;;;;;;;14.50;7.70;;;;;;;-2.38;100.00;100958.55;109482;1251;66523;-54
2024/03/07 06:22:17;;;;;;;15.00;7.30;;;;;;;-2.37;100.00;100955.21;109457;1251;72674;-53
2024/03/07 06:24:45;;;;;;;11.90;6.90;;;;;;;-2.36;100.00;100959.92;109450;1251;59324;-58
2024/03/07 06:27:26;;;;;;;13.20;7.30;;;;;;;-2.36;100.00;100954.00;109451;1251;60513;-54
2024/03/07 06:29:54;;;;;;;16.10;9.10;;;;;;;-2.35;100.00;100953.73;109531;1251;72963;-56
2024/03/07 06:32:22;;;;;;;17.10;9.00;;;;;;;-2.25;100.00;100956.98;109496;1251;66937;-56
2024/03/07 06:34:50;;;;;;;13.10;7.50;;;;;;;-2.18;100.00;100962.37;109460;1251;71709;-55
2024/03/07 06:37:18;;;;;;;12.50;7.40;;;;;;;-2.18;100.00;100957.61;109434;1253;58954;-54
2024/03/07 06:39:48;;;;;;;13.00;7.70;;;;;;;-2.20;100.00;100964.70;109518;1251;60032;-54
2024/03/07 06:42:15;;;;;;;11.20;7.10;;;;;;;-2.25;100.00;100968.02;109483;1251;76783;-55
2024/03/07 06:44:43;;;;;;;16.00;8.80;;;;;;;-2.35;100.00;100966.00;109430;1253;68282;-54
2024/03/07 06:47:11;;;;;;;15.20;8.40;;;;;;;-2.37;100.00;100970.88;109444;1251;72738;-54
2024/03/07 06:49:40;;;;;;;16.40;8.70;;;;;;;-2.35;100.00;100972.85;109449;1251;62279;-55
2024/03/07 06:52:08;;;;;;;13.40;8.40;;;;;;;-2.32;100.00;100971.79;109467;1252;59486;-55
2024/03/07 06:54:35;;;;;;;13.70;7.60;;;;;;;-2.28;100.00;100975.14;109465;1251;74759;-60
2024/03/07 06:57:04;;;;;;;11.50;7.20;;;;;;;-2.28;100.00;100973.80;109470;1251;69840;-55
2024/03/07 06:59:31;;;;;;;13.40;7.70;;;;;;;-2.24;100.00;100973.77;109502;1251;71563;-55
2024/03/07 07:01:59;;;;;;;12.80;7.50;;;;;;;-2.14;100.00;100972.73;109476;1251;59038;-54
2024/03/07 07:04:31;;;;;;;11.30;7.30;;;;;;;-2.10;100.00;100974.02;109463;1251;59014;-54
2024/03/07 07:07:00;;;;;;;12.70;7.50;;;;;;;-2.06;100.00;100971.76;109475;1251;75057;-55
2024/03/07 07:09:28;;;;;;;14.80;7.30;;;;;;;-1.99;100.00;100975.98;109497;1251;67198;-55
2024/03/07 07:11:56;;;;;;;13.50;8.90;;;;;;;-1.93;100.00;100979.42;109509;1254;72660;-54
2024/03/07 07:14:24;;;;;;;13.70;7.20;;;;;;;-1.95;100.00;100981.02;109496;1251;61779;-54
2024/03/07 07:16:52;;;;;;;12.20;7.40;;;;;;;-1.95;100.00;100983.56;109442;1251;63408;-56
2024/03/07 07:19:20;;;;;;;14.20;8.10;;;;;;;-1.92;100.00;100984.42;109511;1251;74581;-55
2024/03/07 07:21:53;;;;;;;13.10;7.60;;;;;;;-1.88;100.00;100986.78;109488;1251;65770;-54
2024/03/07 07:24:23;;;;;;;13.60;7.50;;;;;;;-1.82;100.00;100976.73;109507;1251;70983;-55
2024/03/07 07:26:52;;;;;;;15.20;8.30;;;;;;;-1.76;100.00;100979.98;109441;1251;61650;-55
2024/03/07 07:29:19;;;;;;;14.90;6.80;;;;;;;-1.74;100.00;100975.11;109485;1251;61254;-54
2024/03/07 07:31:47;;;;;;;11.10;6.80;;;;;;;-1.71;100.00;100976.82;109454;1251;76717;-56
2024/03/07 07:34:15;;;;;;;11.40;6.50;;;;;;;-1.66;100.00;100978.04;109506;1251;68922;-54
2024/03/07 07:36:42;;;;;;;12.30;7.60;;;;;;;-1.63;100.00;100986.39;109421;1254;72700;-58
2024/03/07 07:39:16;;;;;;;11.10;7.00;;;;;;;-1.59;100.00;100987.40;109500;1251;60371;-55
2024/03/07 07:41:45;;;;;;;11.10;7.00;;;;;;;-1.49;100.00;100988.52;109508;1250;62253;-54
2024/03/07 07:44:13;;;;;;;10.60;6.70;;;;;;;-1.33;100.00;100992.88;109450;1251;76678;-54
2024/03/07 07:46:41;;;;;;;11.10;6.70;;;;;;;-1.24;100.00;100990.80;109437;1251;69620;-57
2024/03/07 07:49:09;;;;;;;10.50;6.00;;;;;;;-1.20;100.00;100985.29;109430;1254;74968;-55
2024/03/07 07:51:37;;;;;;;11.10;6.80;;;;;;;-1.15;100.00;100981.41;109468;1251;60117;-55
2024/03/07 07:54:04;;;;;;;15.90;6.90;;;;;;;-1.05;100.00;100983.56;109496;1251;62098;-54
2024/03/07 07:56:32;;;;;;;10.00;6.00;;;;;;;-1.02;100.00;100981.15;109504;1251;76741;-55
2024/03/07 07:59:00;;;;;;;9.30;6.30;;;;;;;-0.95;100.00;100982.48;109441;1250;69445;-54
2024/03/07 08:01:27;;;;;;;11.40;6.60;;;;;;;-0.92;100.00;100985.52;109416;1251;73588;-54
2024/03/07 08:03:55;;;;;;;11.00;6.80;;;;;;;-0.92;100.00;100983.14;109413;1251;62812;-55
2024/03/07 08:06:23;;;;;;;12.50;7.80;;;;;;;-0.88;100.00;100986.66;109575;1250;61131;-54
2024/03/07 08:08:51;;;;;;;11.30;6.40;;;;;;;-0.77;100.00;100985.27;109448;1251;76691;-59
2024/03/07 08:11:19;;;;;;;10.60;6.30;;;;;;;-0.68;100.00;100988.88;109478;1251;69057;-55
2024/03/07 08:13:50;;;;;;;10.90;6.30;;;;;;;-0.64;100.00;100990.17;109451;1251;74830;-54
2024/03/07 08:16:18;;;;;;;11.00;6.90;;;;;;;-0.70;100.00;100988.84;109463;1251;60580;-55
2024/03/07 08:18:45;;;;;;;11.60;6.80;;;;;;;-0.77;100.00;100993.99;109487;1251;62121;-58
2024/03/07 08:21:14;;;;;;;12.90;6.80;;;;;;;-0.77;100.00;100996.90;109450;1251;75257;-54
2024/03/07 08:23:41;;;;;;;12.70;7.30;;;;;;;-0.70;100.00;100995.98;109482;1251;68385;-55
2024/03/07 08:26:09;;;;;;;13.20;7.10;;;;;;;-0.71;100.00;100996.89;109480;1251;74865;-55
2024/03/07 08:28:37;;;;;;;17.30;7.50;;;;;;;-0.76;100.00;101000.92;109450;1251;62471;-54
2024/03/07 08:31:05;;;;;;;18.10;6.80;;;;;;;-0.68;100.00;100998.80;109436;1250;63168;-59
2024/03/07 08:33:33;;;;;;;12.50;8.20;;;;;;;-0.63;100.00;101000.52;109484;1251;76648;-55
2024/03/07 08:36:01;;;;;;;493.70;279.80;;;;;;;-0.54;100.00;100998.60;109512;1251;68785;-56
2024/03/07 08:38:29;;;;;;;45.90;23.20;;;;;;;-0.39;100.00;101002.44;109491;1251;74914;-55
2024/03/07 08:40:56;;;;;;;158.60;61.80;;;;;;;-0.32;100.00;100997.09;109574;1251;62299;-59
2024/03/07 08:43:24;;;;;;;199.20;75.70;;;;;;;-0.22;100.00;100995.78;109481;1253;61026;-55
2024/03/07 08:45:52;;;;;;;248.20;87.20;;;;;;;-0.06;100.00;100996.63;109598;1250;75536;-55
2024/03/07 08:48:20;;;;;;;37.10;15.50;;;;;;;0.18;100.00;101000.41;109478;1251;68061;-55
2024/03/07 08:50:48;;;;;;;18.80;10.20;;;;;;;0.29;100.00;101003.71;109488;1251;74749;-56
2024/03/07 08:53:15;;;;;;;184.60;82.30;;;;;;;0.42;100.00;101002.15;109415;1251;61992;-59
2024/03/07 08:55:43;;;;;;;66.20;31.80;;;;;;;0.70;100.00;100999.10;109550;1251;61124;-55
2024/03/07 08:58:11;;;;;;;45.30;22.80;;;;;;;1.02;100.00;101000.09;109504;1251;74950;-55
2024/03/07 09:00:39;;;;;;;23.40;13.00;;;;;;;1.29;100.00;100997.41;109540;1251;69512;-55
2024/03/07 09:03:09;;;;;;;16.20;10.50;;;;;;;1.54;100.00;100997.90;109458;1253;73756;-60
2024/03/07 09:05:40;;;;;;;15.40;9.50;;;;;;;1.77;100.00;100995.23;109456;1254;60309;-55
2024/03/07 09:08:08;;;;;;;15.00;9.40;;;;;;;2.05;100.00;100994.96;109472;1250;62002;-55
2024/03/07 09:10:36;;;;;;;14.70;8.40;;;;;;;2.13;100.00;100992.67;109497;1250;76366;-56
2024/03/07 09:13:06;;;;;;;20.20;11.50;;;;;;;2.37;100.00;100985.29;109443;1251;70152;-59
2024/03/07 09:15:34;;;;;;;98.30;50.30;;;;;;;2.72;100.00;100985.26;109448;1251;72232;-54
2024/03/07 09:18:03;;;;;;;532.10;286.50;;;;;;;2.95;98.62;100981.31;109430;1251;61699;-57
2024/03/07 09:20:31;;;;;;;891.60;468.80;;;;;;;3.15;90.70;100980.78;109446;1251;60059;-54
2024/03/07 09:23:00;;;;;;;264.30;123.10;;;;;;;3.24;87.21;100977.38;109431;1251;76894;-55
2024/03/07 09:25:32;;;;;;;20.00;12.70;;;;;;;3.55;83.73;100979.77;109331;1251;68054;-54
2024/03/07 09:28:00;;;;;;;16.10;9.90;;;;;;;3.35;72.95;100981.17;109380;1250;75089;-54
2024/03/07 09:30:30;;;;;;;14.50;9.50;;;;;;;2.69;70.08;100979.98;109406;1251;61482;-54
2024/03/07 09:32:58;;;;;;;14.00;9.10;;;;;;;2.15;72.84;100981.88;109421;1251;63155;-58
2024/03/07 09:35:26;;;;;;;26.80;13.70;;;;;;;2.05;79.11;100980.91;109457;1251;76703;-55
2024/03/07 09:37:54;;;;;;;36.40;21.00;;;;;;;2.26;83.89;100974.73;109472;1250;67775;-55
2024/03/07 09:40:25;;;;;;;18.80;10.30;;;;;;;2.58;82.38;100972.88;109475;1251;73763;-54
2024/03/07 09:42:57;;;;;;;30.40;16.60;;;;;;;2.75;78.06;100970.16;109435;1254;60343;-58
2024/03/07 09:45:29;;;;;;;107.40;46.30;;;;;;;2.80;76.71;100967.39;109422;1251;61074;-54
2024/03/07 09:47:57;;;;;;;21.80;11.70;;;;;;;2.97;76.87;100964.50;109527;1251;75638;-54
2024/03/07 09:50:27;;;;;;;90.30;38.70;;;;;;;3.20;74.90;100962.56;109463;1250;68427;-54
2024/03/07 09:52:55;;;;;;;31.50;15.40;;;;;;;3.45;74.09;100965.58;109367;1251;75061;-54
2024/03/07 09:55:26;;;;;;;17.00;10.50;;;;;;;3.76;71.03;100962.88;109393;1251;61577;-54
2024/03/07 09:57:55;;;;;;;;;;;;;;;3.87;67.28;100958.58;109475;1250;62350;-55
2024/03/07 10:00:29;;;;;;;22.60;12.10;;;;;;;3.96;65.17;100952.63;109452;1250;76257;-55
2024/03/07 10:02:59;;;;;;;18.50;9.90;;;;;;;3.96;63.16;100955.96;109434;1251;68390;-55
2024/03/07 10:05:28;;;;;;;187.30;95.60;;;;;;;3.78;62.35;100945.70;109465;1250;75601;-54
2024/03/07 10:07:55;;;;;;;40.90;21.10;;;;;;;3.71;62.54;100950.55;109450;1251;60716;-54
2024/03/07 10:10:24;;;;;;;85.70;43.00;;;;;;;3.73;62.67;100948.64;109425;1256;62330;-58
2024/03/07 10:12:57;;;;;;;16.40;10.80;;;;;;;3.94;62.84;100948.00;109506;1251;76813;-54
2024/03/07 10:15:28;;;;;;;25.90;14.40;;;;;;;3.98;60.63;100949.71;109491;1251;68915;-54
2024/03/07 10:17:56;;;;;;;16.80;10.70;;;;;;;3.83;59.84;100950.23;109422;1251;73533;-58
2024/03/07 10:20:24;;;;;;;28.00;16.20;;;;;;;3.66;59.55;100948.13;109390;1251;59058;-55
2024/03/07 10:22:52;;;;;;;76.90;33.50;;;;;;;3.52;60.37;100943.95;109505;1251;61079;-54
2024/03/07 10:25:25;;;;;;;191.60;80.50;;;;;;;3.57;61.64;100948.04;109461;1251;75739;-56
2024/03/07 10:27:54;;;;;;;677.00;342.80;;;;;;;3.71;60.86;100945.51;109488;1251;67881;-56
2024/03/07 10:30:22;;;;;;;242.90;107.00;;;;;;;3.88;60.72;100949.16;109392;1251;72577;-54
2024/03/07 10:32:58;;;;;;;28.00;14.40;;;;;;;4.04;59.47;100945.14;109428;1251;60734;-55
2024/03/07 10:35:29;;;;;;;222.50;103.50;;;;;;;4.04;58.83;100942.20;109419;1251;61245;-55
2024/03/07 10:38:00;;;;;;;88.00;42.00;;;;;;;4.14;59.42;100938.44;109407;1251;77495;-58
2024/03/07 10:40:30;;;;;;;377.40;188.00;;;;;;;4.38;59.33;100936.35;109418;1251;67376;-55
2024/03/07 10:43:02;;;;;;;115.30;56.80;;;;;;;4.52;58.08;100940.70;109381;1251;74795;-54
2024/03/07 10:45:31;;;;;;;18.50;11.10;;;;;;;4.46;56.89;100942.89;109452;1251;61393;-54
2024/03/07 10:48:03;;;;;;;31.50;17.30;;;;;;;4.29;56.79;100939.67;109313;1251;59793;-58
2024/03/07 10:50:47;;;;;;;31.00;16.70;;;;;;;4.18;57.23;100935.37;109469;1251;76733;-54
2024/03/07 10:53:25;;;;;;;24.40;13.10;;;;;;;4.04;57.16;100932.89;109523;1251;68223;-55
2024/03/07 10:55:59;;;;;;;78.20;38.80;;;;;;;3.89;57.54;100932.37;109441;1251;74214;-54
2024/03/07 10:58:34;;;;;;;232.10;98.50;;;;;;;3.86;58.34;100927.30;109493;1250;60640;-54
2024/03/07 11:01:03;;;;;;;425.00;219.50;;;;;;;4.05;59.42;100926.50;109514;1251;60582;-55
2024/03/07 11:03:35;;;;;;;60.80;31.10;;;;;;;4.31;58.72;100927.46;109503;1251;76783;-57
2024/03/07 11:06:06;;;;;;;20.90;13.10;;;;;;;4.52;57.53;100923.52;109479;1253;67084;-55
2024/03/07 11:08:34;;;;;;;71.40;38.20;;;;;;;4.59;56.39;100921.71;109459;1251;74992;-55